Hauptseite
METAR-TAF:

METAR-TAF

Flughäfen :

Flughafen Miri

Miri, Malaysia

Breite: 04-20N, Länge: 113-59E, Höhe: 17 m

Beobachtung

Neuester Wetterbericht von vor 1 Stunde und 8 Minuten, um 17:00 UTC
Windstille
Temperatur 26°C
Luftfeuchtigkeit 94%
Luftdruck 1010 hPa
Sichtweite 10 km oder mehr
Aufgelockert bewölkt in der Höhe von 1600 ft

METAR: WBGR 181700Z 00000KT 9999 SCT016 26/25 Q1010

Zeit: 02:08 (18:08 UTC)

Prognose

Neuester Wetterbericht von vor 1 Stunde und 8 Minuten, um 17:00 UTC
Gültige Prognose vom 18 um 18 UTC bis 19 um 18 UTC
Wind 3 kt aus unterschiedlichen Richtungen
Sichtweite 10 km oder mehr
Leicht bewölkt in der Höhe von 1600 ft

TAF: WBGR 181700Z 1818/1918 VRB03KT 9999 FEW016

Wetterbeobachtungen und Prognosen von mehr als 4000 Flughäfen (METAR und TAF Bericht).

Die verfügbaren Stationen werden durch gelbe und rote Markierungen auf der Karte dargestellt.

Führen Sie die Maus auf sie, um den Namen der Station zu sehen.

Darauf klicken, um die Beobachtung von Wetterbeobachtungen und Prognosen zu sehen.

Um die Karte zu ändern : klicken Sie auf den grünen Tasten mit einem schwarzen Kreuz Zum Vergrößern, auf den grünen Button mit einem Gedankenstrich zu verkleinern, oder auf die grünen Pfeile für benachbarte Karten.


METAR-TAF: